Time;durP1;ratioP1;P1;durP2;ratioP2;P2;SDS_P1;SDS_P2;PMS_P1;PMS_P2;Temp;Humidity;BMP_temperature;BMP_pressure;BME280_temperature;BME280_humidity;BME280_pressure;Samples;Min_cycle;Max_cycle;Signal;HPM_P1;HPM_P2
2022/10/08 00:01:46;;;;;;;10.80;7.10;;;11.00;98.20;;;;;;5020392;28;20442;-82
2022/10/08 00:04:12;;;;;;;9.47;6.87;;;11.00;99.90;;;;;;5020376;28;20443;-81
2022/10/08 00:06:39;;;;;;;9.03;7.90;;;10.90;99.90;;;;;;5020924;28;20433;-82
2022/10/08 00:09:07;;;;;;;9.87;7.30;;;10.90;99.90;;;;;;5020432;28;20494;-82
2022/10/08 00:11:36;;;;;;;16.50;9.43;;;10.90;99.90;;;;;;5027892;28;20472;-82
2022/10/08 00:14:03;;;;;;;8.27;6.63;;;10.90;99.90;;;;;;5024171;28;20451;-82
2022/10/08 00:16:32;;;;;;;10.73;7.27;;;10.90;99.90;;;;;;5017380;28;20455;-82
2022/10/08 00:19:02;;;;;;;8.10;7.20;;;10.90;99.90;;;;;;5017345;28;20483;-82
2022/10/08 00:21:31;;;;;;;11.17;9.03;;;10.90;99.90;;;;;;5025394;22;20500;-87
2022/10/08 00:24:00;;;;;;;9.37;7.70;;;10.80;99.90;;;;;;4998037;28;20452;-87
2022/10/08 00:26:28;;;;;;;11.80;7.07;;;10.80;99.90;;;;;;4998564;28;20962;-87
2022/10/08 00:28:56;;;;;;;9.73;7.00;;;10.90;99.90;;;;;;5010344;28;20448;-87
2022/10/08 00:31:25;;;;;;;10.47;7.17;;;10.80;99.90;;;;;;5011604;28;20460;-86
2022/10/08 00:33:53;;;;;;;9.90;8.47;;;10.80;99.90;;;;;;5000278;28;20475;-87
2022/10/08 00:36:23;;;;;;;13.50;10.30;;;10.80;99.90;;;;;;4999774;28;20444;-87
2022/10/08 00:38:55;;;;;;;11.33;8.43;;;10.90;99.90;;;;;;4998512;28;20524;-87
2022/10/08 00:41:25;;;;;;;10.63;8.37;;;10.90;99.90;;;;;;4999264;28;20446;-87
2022/10/08 00:43:54;;;;;;;11.40;7.47;;;10.80;99.90;;;;;;4998796;28;20452;-87
2022/10/08 00:46:25;;;;;;;10.43;7.90;;;10.80;99.90;;;;;;4998235;28;20452;-87
2022/10/08 00:48:56;;;;;;;9.50;7.40;;;10.80;99.90;;;;;;4999722;28;20926;-86
2022/10/08 00:51:25;;;;;;;13.40;9.17;;;10.80;99.90;;;;;;5015896;28;20495;-85
2022/10/08 00:53:52;;;;;;;13.17;8.47;;;10.70;99.90;;;;;;5016185;28;20981;-85
2022/10/08 00:56:19;;;;;;;12.50;9.33;;;10.60;99.90;;;;;;5010506;28;20453;-87
2022/10/08 00:58:46;;;;;;;13.97;10.37;;;10.60;99.90;;;;;;5006193;28;20932;-88
2022/10/08 01:01:13;;;;;;;11.40;8.93;;;10.60;99.90;;;;;;5006476;28;20439;-88
2022/10/08 01:03:40;;;;;;;10.17;9.07;;;10.60;99.90;;;;;;5006757;28;20451;-88
2022/10/08 01:06:18;;;;;;;12.30;9.50;;;10.60;99.90;;;;;;5006133;28;20469;-88
2022/10/08 01:08:54;;;;;;;11.47;9.20;;;10.50;99.90;;;;;;5005405;28;20491;-87
2022/10/08 01:11:36;;;;;;;9.60;8.50;;;10.60;99.90;;;;;;5005420;28;20998;-87
2022/10/08 01:14:13;;;;;;;11.00;8.10;;;10.60;99.90;;;;;;5005849;28;20411;-86
2022/10/08 01:16:47;;;;;;;16.90;9.37;;;10.60;99.90;;;;;;5010422;28;20436;-86
2022/10/08 01:19:33;;;;;;;19.97;11.50;;;10.70;99.90;;;;;;5017206;28;20476;-85
2022/10/08 01:22:13;;;;;;;14.30;11.90;;;10.70;99.90;;;;;;5022664;28;20491;-86
2022/10/08 01:27:34;;;;;;;17.87;9.00;;;10.70;99.90;;;;;;5022759;28;20398;-85
2022/10/08 01:30:04;;;;;;;9.60;7.70;;;10.70;99.90;;;;;;5014039;28;20438;-87
2022/10/08 01:32:38;;;;;;;10.87;8.17;;;10.70;99.90;;;;;;5006259;28;20591;-87
2022/10/08 01:35:10;;;;;;;13.93;9.10;;;10.70;99.90;;;;;;5003023;28;20424;-87
2022/10/08 01:37:41;;;;;;;13.47;8.00;;;10.70;99.90;;;;;;5014431;28;20464;-86
2022/10/08 01:40:12;;;;;;;10.13;7.80;;;10.80;99.90;;;;;;5001783;28;20475;-84
2022/10/08 01:42:41;;;;;;;14.13;8.53;;;10.80;99.90;;;;;;5019878;28;20468;-86
2022/10/08 01:45:14;;;;;;;11.57;8.50;;;10.80;99.90;;;;;;5021300;28;20506;-85
2022/10/08 01:47:43;;;;;;;12.90;8.40;;;10.80;99.90;;;;;;5004623;28;20824;-85
2022/10/08 01:50:14;;;;;;;16.47;8.87;;;10.80;99.90;;;;;;5000597;28;20449;-87
2022/10/08 01:52:44;;;;;;;9.40;7.67;;;10.80;99.90;;;;;;5000513;28;20476;-87
2022/10/08 01:55:16;;;;;;;10.43;7.33;;;10.80;99.90;;;;;;5002185;28;20446;-86
2022/10/08 01:57:46;;;;;;;10.70;8.10;;;10.70;99.90;;;;;;5004958;28;20528;-87
2022/10/08 02:00:14;;;;;;;8.03;7.07;;;10.70;99.90;;;;;;5003860;28;20446;-86
2022/10/08 02:02:42;;;;;;;7.73;6.93;;;10.70;99.90;;;;;;5003388;28;20495;-87
2022/10/08 02:05:10;;;;;;;12.90;8.00;;;10.70;99.90;;;;;;5003517;28;20447;-88
2022/10/08 02:07:40;;;;;;;8.70;7.80;;;10.70;99.90;;;;;;5003596;28;20423;-87
2022/10/08 02:10:09;;;;;;;10.37;7.67;;;10.70;99.90;;;;;;5011683;28;20446;-87
2022/10/08 02:12:38;;;;;;;12.90;7.73;;;10.80;99.90;;;;;;5012517;28;20468;-87
2022/10/08 02:15:09;;;;;;;8.87;7.80;;;10.80;99.90;;;;;;5010015;28;20452;-87
2022/10/08 02:17:42;;;;;;;13.53;8.10;;;10.80;99.90;;;;;;5009816;28;20495;-87
2022/10/08 02:20:16;;;;;;;12.50;8.73;;;10.80;99.90;;;;;;5009398;28;20432;-88
2022/10/08 02:22:57;;;;;;;12.00;8.50;;;10.90;99.90;;;;;;5008512;28;20477;-88
2022/10/08 02:25:30;;;;;;;12.33;7.97;;;10.90;99.90;;;;;;5009807;28;20436;-88
2022/10/08 02:28:06;;;;;;;10.27;7.30;;;10.90;99.90;;;;;;5010015;28;20436;-87
2022/10/08 02:30:40;;;;;;;12.13;9.10;;;10.90;99.90;;;;;;5016232;28;20491;-87
2022/10/08 02:33:12;;;;;;;14.37;8.13;;;11.00;99.90;;;;;;5017620;28;20403;-87
2022/10/08 02:35:45;;;;;;;11.40;7.40;;;11.00;99.90;;;;;;5017267;28;20400;-86
2022/10/08 02:38:16;;;;;;;9.37;6.90;;;11.00;99.90;;;;;;5021118;28;20460;-87
2022/10/08 02:40:48;;;;;;;9.33;7.53;;;10.80;99.90;;;;;;5020706;28;20454;-87
2022/10/08 02:43:20;;;;;;;14.17;8.53;;;11.00;99.90;;;;;;5014613;28;20444;-86
2022/10/08 02:45:53;;;;;;;11.33;7.87;;;11.00;99.90;;;;;;5003225;28;20411;-86
2022/10/08 02:48:26;;;;;;;10.13;7.70;;;11.00;99.90;;;;;;5004197;28;20437;-87
2022/10/08 02:50:55;;;;;;;11.53;7.33;;;11.00;99.90;;;;;;5009947;28;20488;-87
2022/10/08 02:53:23;;;;;;;8.63;7.83;;;11.00;99.90;;;;;;5017543;28;20796;-87
2022/10/08 02:56:04;;;;;;;10.67;7.70;;;11.00;99.90;;;;;;5017034;28;20553;-87
2022/10/08 02:58:31;;;;;;;9.00;8.10;;;11.00;99.90;;;;;;5007925;28;20445;-86
2022/10/08 03:01:06;;;;;;;8.87;7.10;;;11.00;99.90;;;;;;5007156;28;20473;-88
2022/10/08 03:03:37;;;;;;;8.30;7.50;;;11.10;99.90;;;;;;5006580;28;20418;-86
2022/10/08 03:06:07;;;;;;;9.23;7.97;;;11.10;99.90;;;;;;5006129;28;20415;-87
2022/10/08 03:08:36;;;;;;;11.00;8.83;;;11.10;99.90;;;;;;5006423;28;20463;-87
2022/10/08 03:11:04;;;;;;;11.33;8.47;;;11.10;99.90;;;;;;5005890;28;20443;-87
2022/10/08 03:13:35;;;;;;;10.30;7.93;;;11.10;99.90;;;;;;5007143;28;20431;-87
2022/10/08 03:16:07;;;;;;;9.60;8.00;;;11.10;99.90;;;;;;5006559;28;20810;-87
2022/10/08 03:18:35;;;;;;;13.80;8.27;;;11.20;99.90;;;;;;5006134;28;20444;-88
2022/10/08 03:21:03;;;;;;;16.93;8.30;;;11.10;99.90;;;;;;5005627;28;20463;-88
2022/10/08 03:23:30;;;;;;;10.00;8.13;;;11.10;99.90;;;;;;5006029;28;20464;-88
2022/10/08 03:25:56;;;;;;;10.57;8.30;;;11.10;99.90;;;;;;5005460;28;20419;-87
2022/10/08 03:28:23;;;;;;;13.47;7.70;;;11.10;99.90;;;;;;5007223;28;20430;-87
2022/10/08 03:30:50;;;;;;;11.30;7.73;;;11.10;99.90;;;;;;5009282;28;20476;-88
2022/10/08 03:33:18;;;;;;;13.10;7.50;;;11.10;99.90;;;;;;5013857;28;20430;-87
2022/10/08 03:35:45;;;;;;;9.50;8.50;;;11.10;99.90;;;;;;5008846;28;20420;-87
2022/10/08 03:38:14;;;;;;;15.57;9.03;;;11.20;99.90;;;;;;5005101;28;20453;-87
2022/10/08 03:40:41;;;;;;;10.70;8.33;;;11.40;99.90;;;;;;5005740;28;20459;-87
2022/10/08 03:43:07;;;;;;;13.53;8.60;;;11.10;99.90;;;;;;5006828;28;20459;-88
2022/10/08 03:45:34;;;;;;;13.50;9.83;;;11.10;99.90;;;;;;5004594;28;20452;-87
2022/10/08 03:48:01;;;;;;;10.50;9.00;;;11.10;99.90;;;;;;5003461;28;20514;-87
2022/10/08 03:50:29;;;;;;;12.10;8.23;;;11.10;99.90;;;;;;5003449;28;20448;-87
2022/10/08 03:52:55;;;;;;;12.43;9.20;;;11.00;99.90;;;;;;5002396;28;20455;-86
2022/10/08 03:55:22;;;;;;;10.77;8.20;;;11.30;99.90;;;;;;5001745;28;20909;-88
2022/10/08 03:57:49;;;;;;;10.87;9.73;;;10.90;99.90;;;;;;5002983;28;20452;-86
2022/10/08 04:00:16;;;;;;;8.97;8.10;;;11.00;99.90;;;;;;5002958;28;20459;-86
2022/10/08 04:02:43;;;;;;;12.50;9.20;;;11.10;99.90;;;;;;5003541;28;20468;-87
2022/10/08 04:05:10;;;;;;;10.20;8.37;;;11.00;99.90;;;;;;5011877;28;20440;-86
2022/10/08 04:07:38;;;;;;;14.30;8.43;;;11.10;99.90;;;;;;5019809;28;20487;-85
2022/10/08 04:10:05;;;;;;;12.37;7.57;;;10.80;99.90;;;;;;5019877;28;20411;-85
2022/10/08 04:12:31;;;;;;;9.73;8.50;;;11.40;99.90;;;;;;5019487;28;20474;-87
2022/10/08 04:14:58;;;;;;;12.67;7.63;;;11.10;99.90;;;;;;5019654;28;20399;-85
2022/10/08 04:17:25;;;;;;;15.43;9.37;;;;;;;;;;5019568;28;20437;-85
2022/10/08 04:19:52;;;;;;;9.90;8.40;;;11.20;99.90;;;;;;5015340;28;20436;-87
2022/10/08 04:22:18;;;;;;;12.00;10.40;;;11.50;99.90;;;;;;5003582;28;20473;-87
2022/10/08 04:24:46;;;;;;;13.37;9.07;;;11.10;99.90;;;;;;5003850;28;20951;-86
2022/10/08 04:27:13;;;;;;;10.80;8.47;;;11.10;99.90;;;;;;5002141;28;20419;-88
2022/10/08 04:29:40;;;;;;;12.47;8.60;;;11.10;99.90;;;;;;5002652;28;20453;-88
2022/10/08 04:32:06;;;;;;;9.50;7.70;;;11.10;99.90;;;;;;5001103;28;20469;-86
2022/10/08 04:34:33;;;;;;;12.80;8.33;;;11.00;99.90;;;;;;5001423;28;20459;-86
2022/10/08 04:37:00;;;;;;;17.73;9.07;;;11.10;99.90;;;;;;5000408;28;20935;-86
2022/10/08 04:39:26;;;;;;;10.77;9.67;;;11.10;99.90;;;;;;5000286;28;20452;-85
2022/10/08 04:41:54;;;;;;;14.20;8.53;;;11.00;99.90;;;;;;5001526;28;20471;-88
2022/10/08 04:44:21;;;;;;;12.03;9.23;;;11.00;99.90;;;;;;5000437;28;20452;-88
2022/10/08 04:46:48;;;;;;;15.40;11.00;;;11.10;99.90;;;;;;5004308;28;20432;-87
2022/10/08 04:49:14;;;;;;;13.90;10.83;;;11.00;99.90;;;;;;5006333;28;20415;-87
2022/10/08 04:51:41;;;;;;;11.73;10.20;;;11.00;99.90;;;;;;4998265;28;20464;-86
2022/10/08 04:54:08;;;;;;;16.60;12.63;;;10.70;99.90;;;;;;4999479;28;20452;-86
2022/10/08 04:56:35;;;;;;;16.40;14.70;;;10.90;99.90;;;;;;4999625;28;20457;-86
2022/10/08 04:59:04;;;;;;;19.17;14.60;;;10.90;99.90;;;;;;5001231;28;20459;-86
2022/10/08 05:01:31;;;;;;;18.77;15.57;;;10.80;99.90;;;;;;5000791;28;20484;-86
2022/10/08 05:03:59;;;;;;;14.30;12.90;;;10.70;99.90;;;;;;5004487;28;20447;-87
2022/10/08 05:06:29;;;;;;;17.20;12.37;;;10.80;99.90;;;;;;5004068;28;20452;-87
2022/10/08 05:08:56;;;;;;;14.97;11.57;;;10.60;99.90;;;;;;5004132;28;20472;-87
2022/10/08 05:11:24;;;;;;;15.63;10.80;;;10.60;99.90;;;;;;5005215;28;20875;-87
2022/10/08 05:13:51;;;;;;;15.67;12.00;;;10.60;99.90;;;;;;5004341;28;20465;-87
2022/10/08 05:16:19;;;;;;;13.23;10.80;;;10.50;99.90;;;;;;5002910;28;20483;-87
2022/10/08 05:18:46;;;;;;;11.70;10.30;;;10.50;99.90;;;;;;5000316;28;20459;-86
2022/10/08 05:21:16;;;;;;;11.03;9.50;;;10.50;99.90;;;;;;5000952;28;20515;-87
2022/10/08 05:23:43;;;;;;;11.10;9.63;;;10.40;99.90;;;;;;5001471;28;20436;-87
2022/10/08 05:26:15;;;;;;;13.23;10.20;;;10.30;99.90;;;;;;5000026;28;20449;-86
2022/10/08 05:28:42;;;;;;;16.03;10.13;;;10.30;99.90;;;;;;5001097;28;20460;-86
2022/10/08 05:31:09;;;;;;;15.27;9.03;;;10.30;99.90;;;;;;5000365;28;20522;-87
2022/10/08 05:33:37;;;;;;;12.50;9.60;;;10.30;99.90;;;;;;5001583;28;20830;-86
2022/10/08 05:36:05;;;;;;;9.43;8.40;;;10.30;99.90;;;;;;4999956;28;20455;-88
2022/10/08 05:38:32;;;;;;;11.13;9.40;;;10.30;99.90;;;;;;4999797;28;20449;-88
2022/10/08 05:41:08;;;;;;;11.67;8.97;;;10.40;99.90;;;;;;4998844;28;20470;-87
2022/10/08 05:43:35;;;;;;;13.50;9.17;;;10.60;99.90;;;;;;5000300;28;20407;-87
2022/10/08 05:46:02;;;;;;;16.10;9.20;;;10.50;99.90;;;;;;5002983;28;20428;-88
2022/10/08 05:48:28;;;;;;;12.43;9.07;;;10.50;99.90;;;;;;5004800;28;20433;-89
2022/10/08 05:50:57;;;;;;;11.57;9.40;;;10.60;99.90;;;;;;5005839;28;20221;-87
2022/10/08 05:53:23;;;;;;;12.37;9.73;;;10.60;99.90;;;;;;5005505;28;20532;-87
2022/10/08 05:55:59;;;;;;;14.53;9.10;;;10.60;99.90;;;;;;5005277;28;20930;-86
2022/10/08 05:58:26;;;;;;;10.27;8.20;;;10.70;99.90;;;;;;5005493;28;20436;-88
2022/10/08 06:00:57;;;;;;;20.70;8.90;;;10.70;99.90;;;;;;4998804;28;20462;-85
2022/10/08 06:03:25;;;;;;;12.07;9.73;;;10.70;99.90;;;;;;5001658;28;20403;-87
2022/10/08 06:05:52;;;;;;;10.40;8.67;;;10.70;99.90;;;;;;5002870;28;20498;-86
2022/10/08 06:08:20;;;;;;;10.87;8.83;;;10.60;99.90;;;;;;5003603;28;20968;-86
2022/10/08 06:10:51;;;;;;;11.20;9.30;;;10.80;99.90;;;;;;5004093;28;20452;-87
2022/10/08 06:13:17;;;;;;;15.20;9.83;;;10.70;99.90;;;;;;5003930;28;20448;-87
2022/10/08 06:15:53;;;;;;;10.50;8.63;;;10.70;99.90;;;;;;5004179;28;20821;-87
2022/10/08 06:18:20;;;;;;;13.23;9.13;;;10.70;99.90;;;;;;5012771;28;20439;-87
2022/10/08 06:20:46;;;;;;;15.47;8.70;;;10.90;99.90;;;;;;5007749;28;20518;-87
2022/10/08 06:23:13;;;;;;;12.00;10.00;;;10.80;99.90;;;;;;5051750;22;20470;-84
2022/10/08 06:25:41;;;;;;;11.90;10.03;;;10.80;99.90;;;;;;5033474;28;20443;-84
2022/10/08 06:28:08;;;;;;;10.40;8.47;;;10.80;99.90;;;;;;5034760;28;20910;-84
2022/10/08 06:30:34;;;;;;;12.30;10.93;;;10.80;99.90;;;;;;5037346;28;20452;-84
2022/10/08 06:33:01;;;;;;;14.13;8.97;;;10.80;99.90;;;;;;5037130;28;20438;-84
2022/10/08 06:35:29;;;;;;;10.60;8.67;;;10.80;99.90;;;;;;5035338;28;20435;-84
2022/10/08 06:37:56;;;;;;;11.83;9.57;;;10.80;99.90;;;;;;5024573;28;20451;-84
2022/10/08 06:40:22;;;;;;;13.37;8.70;;;10.70;99.90;;;;;;5022997;28;20456;-84
2022/10/08 06:42:51;;;;;;;9.47;8.43;;;10.70;99.90;;;;;;5022077;28;20899;-84
2022/10/08 06:45:18;;;;;;;11.33;9.10;;;10.80;99.90;;;;;;5022694;28;20476;-84
2022/10/08 06:47:45;;;;;;;14.60;11.10;;;11.10;99.90;;;;;;5022337;28;20953;-84
2022/10/08 06:50:11;;;;;;;18.23;10.90;;;10.90;99.90;;;;;;5023524;28;20448;-84
2022/10/08 06:52:38;;;;;;;11.00;9.87;;;10.90;99.90;;;;;;5022115;28;20446;-84
2022/10/08 06:55:05;;;;;;;16.30;11.40;;;11.00;99.90;;;;;;5022173;28;20448;-84
2022/10/08 06:57:32;;;;;;;14.63;9.17;;;11.00;99.90;;;;;;5023076;28;20457;-84
2022/10/08 07:00:00;;;;;;;17.07;9.37;;;10.80;99.90;;;;;;5022088;28;20447;-84
2022/10/08 07:02:26;;;;;;;11.27;8.90;;;11.10;99.90;;;;;;5021000;28;20469;-83
2022/10/08 07:04:53;;;;;;;11.07;9.63;;;11.10;99.90;;;;;;5021847;28;20353;-84
2022/10/08 07:07:20;;;;;;;11.20;8.90;;;11.10;99.90;;;;;;5021755;28;20452;-85
2022/10/08 07:09:46;;;;;;;13.07;8.40;;;11.30;99.90;;;;;;5021811;28;20922;-82
2022/10/08 07:12:13;;;;;;;10.50;8.60;;;11.20;99.90;;;;;;5020717;28;20438;-84
2022/10/08 07:14:40;;;;;;;13.30;9.57;;;11.20;99.90;;;;;;5022389;28;20422;-85
2022/10/08 07:17:08;;;;;;;10.30;8.37;;;11.20;99.90;;;;;;5022772;28;20438;-86
2022/10/08 07:19:35;;;;;;;15.13;8.63;;;11.30;99.90;;;;;;5022084;28;20459;-84
2022/10/08 07:22:02;;;;;;;13.37;9.10;;;11.30;99.90;;;;;;5022303;28;20510;-84
2022/10/08 07:24:28;;;;;;;10.53;9.23;;;11.30;99.90;;;;;;5024763;28;20451;-84
2022/10/08 07:26:55;;;;;;;9.77;8.67;;;11.30;99.90;;;;;;5024636;28;20452;-84
2022/10/08 07:29:23;;;;;;;13.77;9.97;;;11.40;99.90;;;;;;5025434;28;20497;-84
2022/10/08 07:31:50;;;;;;;10.90;8.93;;;11.30;99.90;;;;;;5024732;28;20518;-84
2022/10/08 07:34:18;;;;;;;10.23;8.47;;;11.40;99.90;;;;;;5024106;28;20451;-85
2022/10/08 07:36:44;;;;;;;10.80;9.17;;;11.70;99.90;;;;;;5023204;28;20433;-84
2022/10/08 07:39:13;;;;;;;9.43;8.47;;;11.50;99.90;;;;;;5022430;28;20472;-85
2022/10/08 07:41:40;;;;;;;15.43;10.27;;;11.60;99.90;;;;;;5020474;28;20523;-83
2022/10/08 07:44:08;;;;;;;12.93;8.50;;;11.60;99.90;;;;;;5018482;28;20493;-83
2022/10/08 07:46:37;;;;;;;12.97;8.43;;;11.70;99.90;;;;;;5020997;28;20451;-83
2022/10/08 07:49:04;;;;;;;8.70;7.70;;;11.90;99.90;;;;;;5025164;28;20432;-84
2022/10/08 07:51:33;;;;;;;8.93;7.80;;;12.00;99.90;;;;;;5025360;28;20442;-84
2022/10/08 07:54:01;;;;;;;10.03;7.50;;;12.10;99.90;;;;;;5035332;28;20451;-83
2022/10/08 07:56:28;;;;;;;9.40;7.37;;;12.20;99.90;;;;;;5035982;28;20458;-85
2022/10/08 07:58:55;;;;;;;11.17;6.50;;;12.30;99.90;;;;;;5027107;28;20514;-84
2022/10/08 08:01:27;;;;;;;9.53;7.47;;;12.40;99.90;;;;;;5021147;28;20498;-85
2022/10/08 08:03:55;;;;;;;9.15;6.32;;;12.30;99.90;;;;;;5022359;28;20458;-84
2022/10/08 08:06:22;;;;;;;8.27;5.83;;;12.60;99.90;;;;;;5022075;28;20208;-84
2022/10/08 08:08:51;;;;;;;9.77;6.10;;;12.70;99.90;;;;;;5023943;28;20459;-85
2022/10/08 08:11:20;;;;;;;6.60;5.80;;;12.70;38.10;;;;;;5023589;28;20443;-85
2022/10/08 08:13:47;;;;;;;9.33;5.97;;;12.80;1.00;;;;;;5026347;28;20475;-85
2022/10/08 08:16:16;;;;;;;10.10;4.83;;;12.80;1.00;;;;;;5023355;28;20418;-85
2022/10/08 08:18:45;;;;;;;10.83;6.23;;;13.10;1.00;;;;;;5021111;28;20510;-86
2022/10/08 08:21:13;;;;;;;9.27;5.30;;;13.10;99.90;;;;;;5031663;28;20415;-85
2022/10/08 08:23:42;;;;;;;6.63;5.10;;;13.10;1.00;;;;;;5034059;28;20439;-85
2022/10/08 08:26:13;;;;;;;5.80;4.80;;;13.20;99.90;;;;;;5032176;28;20427;-86
2022/10/08 08:28:40;;;;;;;6.80;4.83;;;13.30;99.90;;;;;;5024345;28;20432;-85
2022/10/08 08:31:28;;;;;;;6.30;5.00;;;13.40;99.90;;;;;;5018894;28;20435;-91
2022/10/08 08:33:57;;;;;;;10.33;4.80;;;13.60;1.00;;;;;;5018854;28;20455;-90
2022/10/08 08:36:26;;;;;;;6.90;4.70;;;13.40;99.90;;;;;;5018688;28;20456;-90
2022/10/08 08:38:55;;;;;;;9.10;4.17;;;13.80;1.00;;;;;;5018972;28;20477;-90
2022/10/08 08:44:40;;;;;;;25.07;4.43;;;14.10;99.90;;;;;;5017036;28;20458;-88
2022/10/08 08:50:51;;;;;;;9.50;5.40;;;14.30;99.90;;;;;;5018762;28;20538;-89
2022/10/08 08:53:56;;;;;;;10.90;4.43;;;14.40;99.90;;;;;;4997187;28;20536;-89
2022/10/08 09:00:02;;;;;;;6.10;3.30;;;14.60;1.00;;;;;;4941137;29;20486;-90
2022/10/08 09:02:47;;;;;;;9.63;4.53;;;14.60;1.00;;;;;;4946261;29;20554;-87
2022/10/08 09:05:17;;;;;;;6.50;3.77;;;14.70;1.00;;;;;;5011187;28;20459;-90
2022/10/08 09:08:17;;;;;;;7.90;3.70;;;14.70;1.00;;;;;;5020136;28;20406;-86
2022/10/08 09:14:00;;;;;;;19.87;3.70;;;14.90;1.00;;;;;;5062634;22;20483;-86
2022/10/08 09:16:28;;;;;;;6.63;3.60;;;15.00;1.00;;;;;;5027398;28;20542;-85
2022/10/08 09:18:55;;;;;;;7.37;3.50;;;;;;;;;;5029297;28;20822;-88
2022/10/08 09:21:24;;;;;;;7.73;3.80;;;15.10;99.90;;;;;;5025673;28;20443;-85
2022/10/08 09:24:06;;;;;;;18.80;6.77;;;15.10;99.90;;;;;;5025096;28;20797;-86
2022/10/08 09:26:45;;;;;;;10.47;5.17;;;15.10;99.90;;;;;;5023851;28;20925;-86
2022/10/08 09:29:37;;;;;;;10.30;3.90;;;15.10;99.90;;;;;;5023329;28;20422;-86
2022/10/08 09:32:16;;;;;;;6.23;3.13;;;15.10;99.90;;;;;;5025209;28;20487;-87
2022/10/08 09:35:02;;;;;;;14.37;7.90;;;15.20;1.00;;;;;;5022915;28;20465;-87
2022/10/08 09:37:29;;;;;;;24.07;14.93;;;;;;;;;;5026533;28;20813;-86
2022/10/08 09:40:18;;;;;;;13.30;7.30;;;15.30;99.90;;;;;;5025281;28;20443;-87
2022/10/08 09:42:59;;;;;;;9.33;4.70;;;15.40;99.90;;;;;;5023411;28;20994;-86
2022/10/08 09:45:33;;;;;;;6.83;4.53;;;16.40;1.00;;;;;;5025179;28;20439;-86
2022/10/08 09:48:20;;;;;;;8.63;3.73;;;15.60;99.90;;;;;;5020293;28;20500;-87
2022/10/08 09:50:51;;;;;;;12.83;6.77;;;15.70;99.90;;;;;;5020071;28;20475;-87
2022/10/08 09:53:23;;;;;;;9.80;5.30;;;15.70;99.90;;;;;;5020240;28;20823;-87
2022/10/08 09:55:54;;;;;;;7.53;4.47;;;16.10;99.90;;;;;;5024178;28;20446;-88
2022/10/08 09:58:21;;;;;;;11.10;3.50;;;15.60;99.90;;;;;;5019175;28;20910;-87
2022/10/08 10:00:58;;;;;;;15.60;4.57;;;15.70;99.90;;;;;;5023132;28;20455;-86
2022/10/08 10:03:27;;;;;;;8.33;5.13;;;15.60;99.90;;;;;;5023418;28;20551;-87
2022/10/08 10:05:57;;;;;;;10.02;5.82;;;15.60;99.90;;;;;;5024834;28;20447;-86
2022/10/08 10:08:50;;;;;;;13.73;5.53;;;15.60;99.90;;;;;;5026047;28;20189;-87
2022/10/08 10:11:30;;;;;;;12.13;4.93;;;15.20;1.00;;;;;;5021163;28;20432;-87
2022/10/08 10:13:59;;;;;;;19.63;5.77;;;15.70;99.90;;;;;;5022878;28;20447;-87
2022/10/08 10:16:34;;;;;;;7.73;5.30;;;15.80;1.00;;;;;;5022287;28;20942;-87
2022/10/08 10:19:07;;;;;;;6.17;5.10;;;15.70;99.90;;;;;;5020142;28;20432;-88
2022/10/08 10:21:40;;;;;;;14.10;8.87;;;15.80;99.90;;;;;;5018972;28;20904;-88
2022/10/08 10:24:35;;;;;;;14.73;10.30;;;15.80;99.90;;;;;;5021403;28;20811;-87
2022/10/08 10:27:08;;;;;;;13.10;7.33;;;15.80;99.90;;;;;;5024274;28;20428;-88
2022/10/08 10:29:47;;;;;;;9.90;6.10;;;15.80;99.90;;;;;;5033677;28;20428;-87
2022/10/08 10:32:20;;;;;;;17.73;6.60;;;15.80;99.90;;;;;;5027947;28;20495;-87
2022/10/08 10:34:57;;;;;;;22.07;10.43;;;15.60;99.90;;;;;;5024493;28;20414;-86
2022/10/08 10:37:58;;;;;;;16.57;9.40;;;15.80;99.90;;;;;;5024103;28;20493;-86
2022/10/08 10:47:27;;;;;;;8.33;5.93;;;15.60;99.90;;;;;;4979371;28;20451;-85
2022/10/08 10:50:33;;;;;;;19.87;8.97;;;15.70;99.90;;;;;;5015288;28;20550;-86
2022/10/08 10:53:34;;;;;;;10.83;4.90;;;15.70;99.90;;;;;;5014446;28;20487;-86
2022/10/08 10:56:37;;;;;;;61.60;37.43;;;15.70;99.90;;;;;;5021511;28;20466;-86
2022/10/08 10:59:40;;;;;;;12.27;6.90;;;15.60;99.90;;;;;;5021169;28;20447;-86
2022/10/08 11:02:16;;;;;;;12.67;7.80;;;15.70;99.90;;;;;;5020724;28;20471;-84
2022/10/08 11:04:57;;;;;;;16.33;8.77;;;15.70;99.90;;;;;;5017938;28;20929;-84
2022/10/08 11:07:46;;;;;;;6.87;4.43;;;15.30;99.90;;;;;;5018083;28;20901;-83
2022/10/08 11:10:30;;;;;;;8.80;5.80;;;15.50;99.90;;;;;;5018799;28;20451;-85
2022/10/08 11:13:03;;;;;;;10.10;5.40;;;15.50;99.90;;;;;;5018726;28;20480;-85
2022/10/08 11:15:36;;;;;;;13.50;9.17;;;15.50;99.90;;;;;;5018825;28;21008;-84
2022/10/08 11:18:18;;;;;;;13.23;6.83;;;15.50;99.90;;;;;;5018913;28;20402;-85
2022/10/08 11:21:13;;;;;;;10.87;7.77;;;15.50;99.90;;;;;;5020395;28;20440;-85
2022/10/08 11:24:00;;;;;;;11.07;7.13;;;15.50;99.90;;;;;;5017816;28;20474;-85
2022/10/08 11:26:33;;;;;;;15.50;8.43;;;15.70;1.00;;;;;;5020046;28;20802;-85
2022/10/08 11:29:15;;;;;;;13.70;7.10;;;15.50;99.90;;;;;;5019736;28;20436;-85
2022/10/08 11:31:43;;;;;;;10.03;6.40;;;15.70;1.00;;;;;;5020857;28;20471;-85
2022/10/08 11:34:21;;;;;;;16.13;7.20;;;15.40;99.90;;;;;;5021440;28;20479;-85
2022/10/08 11:36:54;;;;;;;12.93;7.17;;;15.10;1.00;;;;;;5025269;28;20490;-85
2022/10/08 11:39:31;;;;;;;8.87;5.70;;;15.40;1.00;;;;;;5027987;28;20440;-85
2022/10/08 11:42:05;;;;;;;13.93;8.83;;;15.20;1.00;;;;;;5028773;28;20572;-85
2022/10/08 11:44:32;;;;;;;16.73;9.43;;;15.30;99.90;;;;;;5022070;28;20452;-85
2022/10/08 11:47:33;;;;;;;11.60;8.67;;;14.70;99.90;;;;;;5021653;28;20459;-85
2022/10/08 11:49:59;;;;;;;12.23;7.90;;;14.50;1.00;;;;;;5022869;28;20480;-85
2022/10/08 11:52:29;;;;;;;11.70;9.37;;;13.80;99.90;;;;;;5023078;28;20479;-85
2022/10/08 11:54:59;;;;;;;21.80;12.43;;;13.80;99.90;;;;;;5022889;28;20542;-84
2022/10/08 11:57:33;;;;;;;11.40;8.40;;;13.70;99.90;;;;;;5022123;28;20450;-84
2022/10/08 12:00:02;;;;;;;21.03;11.77;;;13.50;99.90;;;;;;5022577;28;21017;-85
2022/10/08 12:02:31;;;;;;;13.80;8.20;;;13.40;99.90;;;;;;5023547;28;20456;-84
2022/10/08 12:05:15;;;;;;;15.13;9.00;;;13.30;99.90;;;;;;5023824;28;20474;-85
2022/10/08 12:07:49;;;;;;;16.67;7.80;;;13.00;99.90;;;;;;5022019;28;20406;-85
2022/10/08 12:10:30;;;;;;;13.80;8.90;;;13.30;99.90;;;;;;5019843;28;20482;-85
2022/10/08 12:13:29;;;;;;;21.83;9.90;;;13.30;99.90;;;;;;5021859;28;20972;-85
2022/10/08 12:15:58;;;;;;;17.00;10.13;;;13.30;99.90;;;;;;5021489;28;20459;-84
2022/10/08 12:18:32;;;;;;;11.97;8.00;;;13.40;99.90;;;;;;5020633;28;20422;-84
2022/10/08 12:21:36;;;;;;;13.50;8.90;;;13.80;99.90;;;;;;5021334;28;20431;-84
2022/10/08 12:24:26;;;;;;;13.80;9.20;;;13.60;99.90;;;;;;5022596;28;20478;-85
2022/10/08 12:27:38;;;;;;;10.50;8.40;;;13.70;99.90;;;;;;5021685;28;20894;-85
2022/10/08 12:30:10;;;;;;;12.97;8.77;;;13.80;99.90;;;;;;5012679;28;20460;-84
2022/10/08 12:32:54;;;;;;;13.47;8.40;;;13.90;99.90;;;;;;5021621;28;20851;-87
2022/10/08 12:35:24;;;;;;;17.53;8.73;;;14.00;99.90;;;;;;5019619;28;20540;-88
2022/10/08 12:38:18;;;;;;;10.60;7.67;;;14.00;99.90;;;;;;5029699;28;20403;-85
2022/10/08 12:40:56;;;;;;;9.43;7.80;;;14.30;99.90;;;;;;5021116;28;20451;-84
2022/10/08 12:43:47;;;;;;;10.30;6.87;;;14.20;99.90;;;;;;5024366;28;20494;-84
2022/10/08 12:46:26;;;;;;;8.03;6.47;;;14.30;99.90;;;;;;5031891;28;20447;-83
2022/10/08 12:49:01;;;;;;;12.83;8.27;;;14.30;99.90;;;;;;5034756;28;20436;-84
2022/10/08 12:51:38;;;;;;;11.97;6.70;;;14.60;99.90;;;;;;5031544;28;20441;-84
2022/10/08 12:54:05;;;;;;;6.00;5.40;;;14.40;1.00;;;;;;5028672;28;20492;-86
2022/10/08 12:56:32;;;;;;;6.70;6.00;;;14.40;1.00;;;;;;5027132;28;20433;-84
2022/10/08 12:59:01;;;;;;;6.40;5.80;;;14.50;1.00;;;;;;5030286;28;20422;-84
2022/10/08 13:01:30;;;;;;;8.10;5.10;;;14.80;1.00;;;;;;5028464;28;20533;-86
2022/10/08 13:04:17;;;;;;;9.60;6.13;;;14.70;1.00;;;;;;5022094;28;20902;-86
2022/10/08 13:06:44;;;;;;;7.30;5.23;;;14.70;99.90;;;;;;5021306;28;20410;-86
2022/10/08 13:09:25;;;;;;;7.70;6.10;;;14.70;1.00;;;;;;5020405;28;20455;-86
2022/10/08 13:11:52;;;;;;;7.37;5.33;;;14.80;1.00;;;;;;5023259;28;20459;-85
2022/10/08 13:14:26;;;;;;;9.17;5.13;;;14.90;99.90;;;;;;5024070;28;20458;-84
2022/10/08 13:16:55;;;;;;;7.07;4.80;;;14.80;1.00;;;;;;5023695;28;20444;-85
2022/10/08 13:19:32;;;;;;;4.50;4.10;;;14.80;1.00;;;;;;5024786;28;20532;-86
2022/10/08 13:22:01;;;;;;;8.20;4.40;;;14.80;1.00;;;;;;5023811;28;20537;-89
2022/10/08 13:24:37;;;;;;;6.30;4.20;;;14.80;1.00;;;;;;5022823;28;20446;-85
2022/10/08 13:27:05;;;;;;;14.07;4.70;;;14.80;99.90;;;;;;5023573;28;20487;-84
2022/10/08 13:29:36;;;;;;;6.03;3.63;;;14.80;99.90;;;;;;5021963;28;20471;-85